sensor_id;sensor_type;location;lat;lon;timestamp;P1;durP1;ratioP1;P2;durP2;ratioP2
20870;SDS011;10595;51.218;3.452;2022-09-25T00:01:35;7.03;;;2.80;;
20870;SDS011;10595;51.218;3.452;2022-09-25T00:04:01;8.77;;;2.87;;
20870;SDS011;10595;51.218;3.452;2022-09-25T00:06:28;6.73;;;2.73;;
20870;SDS011;10595;51.218;3.452;2022-09-25T00:08:54;8.93;;;3.13;;
20870;SDS011;10595;51.218;3.452;2022-09-25T00:13:48;9.37;;;2.80;;
20870;SDS011;10595;51.218;3.452;2022-09-25T00:16:15;8.87;;;2.73;;
20870;SDS011;10595;51.218;3.452;2022-09-25T00:18:41;8.17;;;2.93;;
20870;SDS011;10595;51.218;3.452;2022-09-25T00:21:26;11.73;;;3.20;;
20870;SDS011;10595;51.218;3.452;2022-09-25T00:23:55;8.97;;;3.50;;
20870;SDS011;10595;51.218;3.452;2022-09-25T00:26:21;8.73;;;3.20;;
20870;SDS011;10595;51.218;3.452;2022-09-25T00:28:47;7.53;;;3.80;;
20870;SDS011;10595;51.218;3.452;2022-09-25T00:31:17;8.17;;;3.63;;
20870;SDS011;10595;51.218;3.452;2022-09-25T00:33:44;9.00;;;3.50;;
20870;SDS011;10595;51.218;3.452;2022-09-25T00:36:11;8.93;;;3.13;;
20870;SDS011;10595;51.218;3.452;2022-09-25T00:38:37;9.03;;;4.17;;
20870;SDS011;10595;51.218;3.452;2022-09-25T00:41:04;14.57;;;5.37;;
20870;SDS011;10595;51.218;3.452;2022-09-25T00:43:38;15.17;;;5.43;;
20870;SDS011;10595;51.218;3.452;2022-09-25T00:46:06;13.90;;;5.33;;
20870;SDS011;10595;51.218;3.452;2022-09-25T00:48:32;20.20;;;6.87;;
20870;SDS011;10595;51.218;3.452;2022-09-25T00:50:58;25.73;;;7.37;;
20870;SDS011;10595;51.218;3.452;2022-09-25T00:53:32;28.70;;;9.03;;
20870;SDS011;10595;51.218;3.452;2022-09-25T00:55:59;22.10;;;7.80;;
20870;SDS011;10595;51.218;3.452;2022-09-25T00:58:27;27.70;;;9.17;;
20870;SDS011;10595;51.218;3.452;2022-09-25T01:00:55;27.83;;;8.77;;
20870;SDS011;10595;51.218;3.452;2022-09-25T01:03:21;25.83;;;8.53;;
20870;SDS011;10595;51.218;3.452;2022-09-25T01:05:48;25.80;;;8.30;;
20870;SDS011;10595;51.218;3.452;2022-09-25T01:08:15;28.37;;;8.37;;
20870;SDS011;10595;51.218;3.452;2022-09-25T01:10:42;18.87;;;6.50;;
20870;SDS011;10595;51.218;3.452;2022-09-25T01:13:08;22.23;;;7.37;;
20870;SDS011;10595;51.218;3.452;2022-09-25T01:15:37;16.10;;;6.13;;
20870;SDS011;10595;51.218;3.452;2022-09-25T01:20:55;15.17;;;5.27;;
20870;SDS011;10595;51.218;3.452;2022-09-25T01:34:13;8.00;;;3.63;;
20870;SDS011;10595;51.218;3.452;2022-09-25T01:36:47;8.10;;;3.97;;
20870;SDS011;10595;51.218;3.452;2022-09-25T01:39:17;11.60;;;4.77;;
20870;SDS011;10595;51.218;3.452;2022-09-25T01:41:56;18.67;;;4.23;;
20870;SDS011;10595;51.218;3.452;2022-09-25T01:44:25;9.50;;;3.70;;
20870;SDS011;10595;51.218;3.452;2022-09-25T01:46:54;7.63;;;3.80;;
20870;SDS011;10595;51.218;3.452;2022-09-25T01:51:53;9.17;;;3.60;;
20870;SDS011;10595;51.218;3.452;2022-09-25T01:54:26;6.27;;;3.23;;
20870;SDS011;10595;51.218;3.452;2022-09-25T01:56:56;11.60;;;3.93;;
20870;SDS011;10595;51.218;3.452;2022-09-25T02:01:49;5.70;;;3.20;;
20870;SDS011;10595;51.218;3.452;2022-09-25T02:04:20;11.17;;;4.33;;
20870;SDS011;10595;51.218;3.452;2022-09-25T02:06:49;9.37;;;4.10;;
20870;SDS011;10595;51.218;3.452;2022-09-25T02:09:28;9.70;;;4.00;;
20870;SDS011;10595;51.218;3.452;2022-09-25T02:11:57;5.93;;;3.30;;
20870;SDS011;10595;51.218;3.452;2022-09-25T02:14:26;8.93;;;4.60;;
20870;SDS011;10595;51.218;3.452;2022-09-25T02:16:55;9.00;;;4.17;;
20870;SDS011;10595;51.218;3.452;2022-09-25T02:19:23;6.93;;;4.20;;
20870;SDS011;10595;51.218;3.452;2022-09-25T02:27:08;6.53;;;3.93;;
20870;SDS011;10595;51.218;3.452;2022-09-25T02:29:35;8.53;;;3.50;;
20870;SDS011;10595;51.218;3.452;2022-09-25T02:32:06;7.07;;;3.30;;
20870;SDS011;10595;51.218;3.452;2022-09-25T02:34:33;9.83;;;4.00;;
20870;SDS011;10595;51.218;3.452;2022-09-25T02:36:59;7.37;;;4.10;;
20870;SDS011;10595;51.218;3.452;2022-09-25T02:39:26;6.20;;;3.73;;
20870;SDS011;10595;51.218;3.452;2022-09-25T02:42:03;6.47;;;3.77;;
20870;SDS011;10595;51.218;3.452;2022-09-25T02:50:02;11.17;;;4.20;;
20870;SDS011;10595;51.218;3.452;2022-09-25T02:55:01;8.60;;;4.50;;
20870;SDS011;10595;51.218;3.452;2022-09-25T02:57:32;8.73;;;4.27;;
20870;SDS011;10595;51.218;3.452;2022-09-25T02:59:59;7.10;;;3.97;;
20870;SDS011;10595;51.218;3.452;2022-09-25T03:02:26;9.07;;;3.60;;
20870;SDS011;10595;51.218;3.452;2022-09-25T03:04:53;10.73;;;4.50;;
20870;SDS011;10595;51.218;3.452;2022-09-25T03:07:19;9.83;;;4.17;;
20870;SDS011;10595;51.218;3.452;2022-09-25T03:09:46;10.33;;;4.50;;
20870;SDS011;10595;51.218;3.452;2022-09-25T03:12:13;10.60;;;4.10;;
20870;SDS011;10595;51.218;3.452;2022-09-25T03:14:39;9.67;;;4.57;;
20870;SDS011;10595;51.218;3.452;2022-09-25T03:17:06;6.70;;;3.77;;
20870;SDS011;10595;51.218;3.452;2022-09-25T03:19:33;8.30;;;4.30;;
20870;SDS011;10595;51.218;3.452;2022-09-25T03:22:00;6.17;;;4.17;;
20870;SDS011;10595;51.218;3.452;2022-09-25T03:24:26;11.00;;;4.33;;
20870;SDS011;10595;51.218;3.452;2022-09-25T03:26:53;11.97;;;4.70;;
20870;SDS011;10595;51.218;3.452;2022-09-25T03:29:19;11.30;;;4.47;;
20870;SDS011;10595;51.218;3.452;2022-09-25T03:31:45;8.00;;;4.70;;
20870;SDS011;10595;51.218;3.452;2022-09-25T03:34:12;10.50;;;4.70;;
20870;SDS011;10595;51.218;3.452;2022-09-25T03:36:38;11.67;;;4.50;;
20870;SDS011;10595;51.218;3.452;2022-09-25T03:39:05;11.50;;;4.70;;
20870;SDS011;10595;51.218;3.452;2022-09-25T03:41:32;11.37;;;4.90;;
20870;SDS011;10595;51.218;3.452;2022-09-25T03:43:58;9.67;;;4.50;;
20870;SDS011;10595;51.218;3.452;2022-09-25T03:46:26;10.90;;;5.10;;
20870;SDS011;10595;51.218;3.452;2022-09-25T03:48:52;9.60;;;5.23;;
20870;SDS011;10595;51.218;3.452;2022-09-25T03:51:19;8.10;;;4.37;;
20870;SDS011;10595;51.218;3.452;2022-09-25T03:53:46;11.83;;;5.40;;
20870;SDS011;10595;51.218;3.452;2022-09-25T03:56:13;18.57;;;5.30;;
20870;SDS011;10595;51.218;3.452;2022-09-25T03:58:39;8.30;;;5.10;;
20870;SDS011;10595;51.218;3.452;2022-09-25T04:01:06;10.67;;;5.33;;
20870;SDS011;10595;51.218;3.452;2022-09-25T04:03:32;9.93;;;5.73;;
20870;SDS011;10595;51.218;3.452;2022-09-25T04:05:59;8.67;;;4.97;;
20870;SDS011;10595;51.218;3.452;2022-09-25T04:08:28;7.77;;;5.67;;
20870;SDS011;10595;51.218;3.452;2022-09-25T04:10:55;11.53;;;5.30;;
20870;SDS011;10595;51.218;3.452;2022-09-25T04:13:23;6.80;;;4.77;;
20870;SDS011;10595;51.218;3.452;2022-09-25T04:15:49;12.77;;;5.57;;
20870;SDS011;10595;51.218;3.452;2022-09-25T04:18:15;8.13;;;5.03;;
20870;SDS011;10595;51.218;3.452;2022-09-25T04:20:41;7.33;;;5.07;;
20870;SDS011;10595;51.218;3.452;2022-09-25T04:23:07;10.17;;;5.27;;
20870;SDS011;10595;51.218;3.452;2022-09-25T04:25:33;9.43;;;4.80;;
20870;SDS011;10595;51.218;3.452;2022-09-25T04:27:59;8.27;;;5.07;;
20870;SDS011;10595;51.218;3.452;2022-09-25T04:30:26;9.20;;;3.97;;
20870;SDS011;10595;51.218;3.452;2022-09-25T04:32:53;7.67;;;4.80;;
20870;SDS011;10595;51.218;3.452;2022-09-25T04:35:38;7.50;;;4.43;;
20870;SDS011;10595;51.218;3.452;2022-09-25T04:38:05;8.50;;;4.63;;
20870;SDS011;10595;51.218;3.452;2022-09-25T04:40:31;9.60;;;4.93;;
20870;SDS011;10595;51.218;3.452;2022-09-25T04:42:58;10.20;;;4.67;;
20870;SDS011;10595;51.218;3.452;2022-09-25T04:45:25;8.47;;;4.90;;
20870;SDS011;10595;51.218;3.452;2022-09-25T04:47:52;10.90;;;4.73;;
20870;SDS011;10595;51.218;3.452;2022-09-25T04:50:19;6.10;;;4.57;;
20870;SDS011;10595;51.218;3.452;2022-09-25T04:52:45;6.83;;;4.30;;
20870;SDS011;10595;51.218;3.452;2022-09-25T04:55:11;9.53;;;4.57;;
20870;SDS011;10595;51.218;3.452;2022-09-25T04:57:37;8.50;;;4.60;;
20870;SDS011;10595;51.218;3.452;2022-09-25T05:00:04;6.03;;;4.50;;
20870;SDS011;10595;51.218;3.452;2022-09-25T05:02:30;6.70;;;3.80;;
20870;SDS011;10595;51.218;3.452;2022-09-25T05:04:56;9.50;;;5.00;;
20870;SDS011;10595;51.218;3.452;2022-09-25T05:07:22;8.40;;;4.37;;
20870;SDS011;10595;51.218;3.452;2022-09-25T05:09:48;7.43;;;4.43;;
20870;SDS011;10595;51.218;3.452;2022-09-25T05:12:14;10.20;;;4.77;;
20870;SDS011;10595;51.218;3.452;2022-09-25T05:14:40;6.73;;;4.33;;
20870;SDS011;10595;51.218;3.452;2022-09-25T05:17:07;8.57;;;4.77;;
20870;SDS011;10595;51.218;3.452;2022-09-25T05:19:35;10.40;;;4.33;;
20870;SDS011;10595;51.218;3.452;2022-09-25T05:22:01;8.47;;;4.17;;
20870;SDS011;10595;51.218;3.452;2022-09-25T05:24:27;9.57;;;4.50;;
20870;SDS011;10595;51.218;3.452;2022-09-25T05:26:55;9.63;;;4.77;;
20870;SDS011;10595;51.218;3.452;2022-09-25T05:29:21;7.97;;;4.57;;
20870;SDS011;10595;51.218;3.452;2022-09-25T05:31:47;11.83;;;4.63;;
20870;SDS011;10595;51.218;3.452;2022-09-25T05:34:14;12.00;;;5.13;;
20870;SDS011;10595;51.218;3.452;2022-09-25T05:36:40;10.37;;;4.63;;
20870;SDS011;10595;51.218;3.452;2022-09-25T05:39:10;8.27;;;4.87;;
20870;SDS011;10595;51.218;3.452;2022-09-25T05:41:36;8.80;;;4.77;;
20870;SDS011;10595;51.218;3.452;2022-09-25T05:44:02;11.60;;;4.87;;
20870;SDS011;10595;51.218;3.452;2022-09-25T05:46:34;7.87;;;4.80;;
20870;SDS011;10595;51.218;3.452;2022-09-25T05:49:00;11.27;;;4.80;;
20870;SDS011;10595;51.218;3.452;2022-09-25T05:51:26;6.40;;;4.40;;
20870;SDS011;10595;51.218;3.452;2022-09-25T05:53:53;5.87;;;4.03;;
20870;SDS011;10595;51.218;3.452;2022-09-25T05:56:19;8.80;;;4.10;;
20870;SDS011;10595;51.218;3.452;2022-09-25T05:58:48;9.47;;;4.40;;
20870;SDS011;10595;51.218;3.452;2022-09-25T06:01:14;9.90;;;4.50;;
20870;SDS011;10595;51.218;3.452;2022-09-25T06:03:40;6.70;;;4.43;;
20870;SDS011;10595;51.218;3.452;2022-09-25T06:06:06;12.80;;;5.57;;
20870;SDS011;10595;51.218;3.452;2022-09-25T06:08:32;7.93;;;5.13;;
20870;SDS011;10595;51.218;3.452;2022-09-25T06:10:59;9.67;;;4.67;;
20870;SDS011;10595;51.218;3.452;2022-09-25T06:13:26;10.87;;;5.07;;
20870;SDS011;10595;51.218;3.452;2022-09-25T06:15:53;10.00;;;5.20;;
20870;SDS011;10595;51.218;3.452;2022-09-25T06:18:21;10.57;;;5.20;;
20870;SDS011;10595;51.218;3.452;2022-09-25T06:20:48;8.07;;;4.90;;
20870;SDS011;10595;51.218;3.452;2022-09-25T06:23:14;8.80;;;4.87;;
20870;SDS011;10595;51.218;3.452;2022-09-25T06:25:41;12.07;;;5.70;;
20870;SDS011;10595;51.218;3.452;2022-09-25T06:28:07;8.83;;;4.50;;
20870;SDS011;10595;51.218;3.452;2022-09-25T06:30:34;10.60;;;4.80;;
20870;SDS011;10595;51.218;3.452;2022-09-25T06:33:04;10.87;;;5.37;;
20870;SDS011;10595;51.218;3.452;2022-09-25T06:35:31;14.07;;;5.93;;
20870;SDS011;10595;51.218;3.452;2022-09-25T06:37:58;11.30;;;6.17;;
20870;SDS011;10595;51.218;3.452;2022-09-25T06:40:25;11.47;;;6.30;;
20870;SDS011;10595;51.218;3.452;2022-09-25T06:43:01;13.27;;;6.83;;
20870;SDS011;10595;51.218;3.452;2022-09-25T06:45:28;12.97;;;6.77;;
20870;SDS011;10595;51.218;3.452;2022-09-25T06:47:59;12.27;;;6.93;;
20870;SDS011;10595;51.218;3.452;2022-09-25T06:50:26;11.73;;;6.50;;
20870;SDS011;10595;51.218;3.452;2022-09-25T06:52:55;8.83;;;5.33;;
20870;SDS011;10595;51.218;3.452;2022-09-25T06:55:22;10.40;;;4.90;;
20870;SDS011;10595;51.218;3.452;2022-09-25T06:57:48;10.47;;;4.83;;
20870;SDS011;10595;51.218;3.452;2022-09-25T07:00:14;11.30;;;5.60;;
20870;SDS011;10595;51.218;3.452;2022-09-25T07:02:40;14.03;;;4.87;;
20870;SDS011;10595;51.218;3.452;2022-09-25T07:05:24;11.60;;;4.63;;
20870;SDS011;10595;51.218;3.452;2022-09-25T07:07:50;10.03;;;4.53;;
20870;SDS011;10595;51.218;3.452;2022-09-25T07:10:16;14.50;;;4.53;;
20870;SDS011;10595;51.218;3.452;2022-09-25T07:12:42;9.67;;;4.20;;
20870;SDS011;10595;51.218;3.452;2022-09-25T07:15:11;13.70;;;5.90;;
20870;SDS011;10595;51.218;3.452;2022-09-25T07:17:40;15.23;;;6.23;;
20870;SDS011;10595;51.218;3.452;2022-09-25T07:20:07;7.13;;;4.60;;
20870;SDS011;10595;51.218;3.452;2022-09-25T07:22:33;7.53;;;4.10;;
20870;SDS011;10595;51.218;3.452;2022-09-25T07:24:59;8.20;;;3.57;;
20870;SDS011;10595;51.218;3.452;2022-09-25T07:27:26;12.03;;;3.97;;
20870;SDS011;10595;51.218;3.452;2022-09-25T07:29:52;7.90;;;3.90;;
20870;SDS011;10595;51.218;3.452;2022-09-25T07:32:17;7.30;;;4.03;;
20870;SDS011;10595;51.218;3.452;2022-09-25T07:34:44;9.37;;;4.10;;
20870;SDS011;10595;51.218;3.452;2022-09-25T07:37:15;8.83;;;4.50;;
20870;SDS011;10595;51.218;3.452;2022-09-25T07:39:41;8.10;;;4.13;;
20870;SDS011;10595;51.218;3.452;2022-09-25T07:42:07;9.83;;;4.37;;
20870;SDS011;10595;51.218;3.452;2022-09-25T07:44:33;9.30;;;4.00;;
20870;SDS011;10595;51.218;3.452;2022-09-25T07:46:59;9.03;;;4.33;;
20870;SDS011;10595;51.218;3.452;2022-09-25T07:49:28;8.60;;;3.37;;
20870;SDS011;10595;51.218;3.452;2022-09-25T07:51:54;8.73;;;3.57;;
20870;SDS011;10595;51.218;3.452;2022-09-25T07:54:20;49.80;;;17.90;;
20870;SDS011;10595;51.218;3.452;2022-09-25T07:56:46;9.23;;;4.13;;
20870;SDS011;10595;51.218;3.452;2022-09-25T07:59:12;8.33;;;4.47;;
20870;SDS011;10595;51.218;3.452;2022-09-25T08:01:38;7.97;;;3.90;;
20870;SDS011;10595;51.218;3.452;2022-09-25T08:04:04;8.43;;;3.43;;
20870;SDS011;10595;51.218;3.452;2022-09-25T08:06:32;7.63;;;3.57;;
20870;SDS011;10595;51.218;3.452;2022-09-25T08:08:59;6.33;;;2.70;;
20870;SDS011;10595;51.218;3.452;2022-09-25T08:11:25;7.20;;;3.30;;
20870;SDS011;10595;51.218;3.452;2022-09-25T08:13:52;6.03;;;2.93;;
20870;SDS011;10595;51.218;3.452;2022-09-25T08:16:18;4.77;;;2.10;;
20870;SDS011;10595;51.218;3.452;2022-09-25T08:18:47;4.00;;;2.30;;
20870;SDS011;10595;51.218;3.452;2022-09-25T08:21:14;3.50;;;2.00;;
20870;SDS011;10595;51.218;3.452;2022-09-25T08:23:41;7.60;;;2.47;;
20870;SDS011;10595;51.218;3.452;2022-09-25T08:26:07;5.33;;;2.60;;
20870;SDS011;10595;51.218;3.452;2022-09-25T08:28:33;5.23;;;2.40;;
20870;SDS011;10595;51.218;3.452;2022-09-25T08:30:59;6.50;;;1.50;;
20870;SDS011;10595;51.218;3.452;2022-09-25T08:33:27;2.90;;;1.43;;
20870;SDS011;10595;51.218;3.452;2022-09-25T08:35:54;3.20;;;1.40;;
20870;SDS011;10595;51.218;3.452;2022-09-25T08:38:21;4.03;;;1.50;;
20870;SDS011;10595;51.218;3.452;2022-09-25T08:43:30;2.87;;;1.27;;
20870;SDS011;10595;51.218;3.452;2022-09-25T08:45:58;3.07;;;1.10;;
20870;SDS011;10595;51.218;3.452;2022-09-25T08:48:50;3.23;;;1.60;;
20870;SDS011;10595;51.218;3.452;2022-09-25T08:51:30;3.20;;;0.97;;
20870;SDS011;10595;51.218;3.452;2022-09-25T08:53:57;2.40;;;0.80;;
20870;SDS011;10595;51.218;3.452;2022-09-25T08:56:25;2.57;;;1.20;;
20870;SDS011;10595;51.218;3.452;2022-09-25T08:58:58;3.30;;;1.10;;
20870;SDS011;10595;51.218;3.452;2022-09-25T09:01:27;4.00;;;1.30;;
20870;SDS011;10595;51.218;3.452;2022-09-25T09:06:19;2.77;;;1.10;;
20870;SDS011;10595;51.218;3.452;2022-09-25T09:08:52;2.10;;;1.10;;
20870;SDS011;10595;51.218;3.452;2022-09-25T09:11:27;2.37;;;0.90;;
20870;SDS011;10595;51.218;3.452;2022-09-25T09:14:03;2.87;;;1.00;;
20870;SDS011;10595;51.218;3.452;2022-09-25T09:19:03;3.63;;;1.50;;
20870;SDS011;10595;51.218;3.452;2022-09-25T09:21:32;2.43;;;1.67;;
20870;SDS011;10595;51.218;3.452;2022-09-25T09:36:55;3.90;;;2.07;;
20870;SDS011;10595;51.218;3.452;2022-09-25T09:39:34;4.93;;;2.00;;
20870;SDS011;10595;51.218;3.452;2022-09-25T09:47:07;2.80;;;1.70;;
20870;SDS011;10595;51.218;3.452;2022-09-25T09:49:38;3.47;;;1.93;;
20870;SDS011;10595;51.218;3.452;2022-09-25T09:56:59;3.43;;;1.40;;
20870;SDS011;10595;51.218;3.452;2022-09-25T09:59:28;5.10;;;1.20;;
20870;SDS011;10595;51.218;3.452;2022-09-25T10:02:03;2.90;;;1.50;;
20870;SDS011;10595;51.218;3.452;2022-09-25T10:04:33;3.37;;;1.07;;
20870;SDS011;10595;51.218;3.452;2022-09-25T10:07:04;2.80;;;0.90;;
20870;SDS011;10595;51.218;3.452;2022-09-25T10:09:33;3.33;;;0.83;;
20870;SDS011;10595;51.218;3.452;2022-09-25T10:14:45;2.80;;;1.10;;
20870;SDS011;10595;51.218;3.452;2022-09-25T10:17:12;4.20;;;0.80;;
20870;SDS011;10595;51.218;3.452;2022-09-25T10:19:56;2.77;;;0.80;;
20870;SDS011;10595;51.218;3.452;2022-09-25T10:22:25;5.40;;;1.00;;
20870;SDS011;10595;51.218;3.452;2022-09-25T10:24:57;4.27;;;0.80;;
20870;SDS011;10595;51.218;3.452;2022-09-25T10:27:33;5.50;;;0.90;;
20870;SDS011;10595;51.218;3.452;2022-09-25T10:32:40;3.53;;;1.20;;
20870;SDS011;10595;51.218;3.452;2022-09-25T10:35:12;4.40;;;1.23;;
20870;SDS011;10595;51.218;3.452;2022-09-25T10:37:39;5.07;;;1.23;;
20870;SDS011;10595;51.218;3.452;2022-09-25T10:40:06;3.07;;;1.10;;
20870;SDS011;10595;51.218;3.452;2022-09-25T10:42:39;4.80;;;1.20;;
20870;SDS011;10595;51.218;3.452;2022-09-25T10:47:47;2.77;;;0.93;;
20870;SDS011;10595;51.218;3.452;2022-09-25T10:50:33;3.47;;;1.30;;
20870;SDS011;10595;51.218;3.452;2022-09-25T10:53:01;2.50;;;1.00;;
20870;SDS011;10595;51.218;3.452;2022-09-25T10:55:32;3.40;;;0.80;;
20870;SDS011;10595;51.218;3.452;2022-09-25T11:00:28;2.80;;;0.87;;
20870;SDS011;10595;51.218;3.452;2022-09-25T11:02:56;3.37;;;0.80;;
20870;SDS011;10595;51.218;3.452;2022-09-25T11:05:32;3.33;;;1.20;;
20870;SDS011;10595;51.218;3.452;2022-09-25T11:08:00;4.57;;;0.83;;
20870;SDS011;10595;51.218;3.452;2022-09-25T11:10:29;2.73;;;0.50;;
20870;SDS011;10595;51.218;3.452;2022-09-25T11:12:56;2.23;;;0.70;;
20870;SDS011;10595;51.218;3.452;2022-09-25T11:15:23;1.77;;;0.60;;
20870;SDS011;10595;51.218;3.452;2022-09-25T11:17:52;2.33;;;0.53;;
20870;SDS011;10595;51.218;3.452;2022-09-25T11:22:54;2.40;;;0.93;;
20870;SDS011;10595;51.218;3.452;2022-09-25T11:25:28;2.23;;;0.80;;
20870;SDS011;10595;51.218;3.452;2022-09-25T11:30:48;3.80;;;0.73;;
20870;SDS011;10595;51.218;3.452;2022-09-25T11:35:50;3.60;;;1.10;;
20870;SDS011;10595;51.218;3.452;2022-09-25T12:10:55;2.97;;;0.67;;
20870;SDS011;10595;51.218;3.452;2022-09-25T12:15:59;2.20;;;0.50;;
20870;SDS011;10595;51.218;3.452;2022-09-25T12:24:18;1.33;;;0.60;;
20870;SDS011;10595;51.218;3.452;2022-09-25T12:26:51;1.53;;;0.53;;
20870;SDS011;10595;51.218;3.452;2022-09-25T12:37:25;3.87;;;0.60;;
20870;SDS011;10595;51.218;3.452;2022-09-25T12:39:56;2.47;;;0.60;;
20870;SDS011;10595;51.218;3.452;2022-09-25T12:42:28;2.17;;;0.70;;
20870;SDS011;10595;51.218;3.452;2022-09-25T12:45:00;1.87;;;0.60;;
20870;SDS011;10595;51.218;3.452;2022-09-25T12:47:33;2.73;;;0.60;;
20870;SDS011;10595;51.218;3.452;2022-09-25T12:50:09;2.70;;;0.53;;
20870;SDS011;10595;51.218;3.452;2022-09-25T12:52:37;1.63;;;0.50;;
20870;SDS011;10595;51.218;3.452;2022-09-25T12:55:08;1.63;;;0.60;;
20870;SDS011;10595;51.218;3.452;2022-09-25T13:00:23;2.30;;;0.50;;
20870;SDS011;10595;51.218;3.452;2022-09-25T13:03:00;2.63;;;0.63;;
20870;SDS011;10595;51.218;3.452;2022-09-25T13:10:54;3.10;;;0.60;;
20870;SDS011;10595;51.218;3.452;2022-09-25T13:13:23;3.10;;;0.50;;
20870;SDS011;10595;51.218;3.452;2022-09-25T13:15:52;2.37;;;0.60;;
20870;SDS011;10595;51.218;3.452;2022-09-25T13:18:21;3.63;;;0.70;;
20870;SDS011;10595;51.218;3.452;2022-09-25T13:20:48;4.40;;;1.00;;
20870;SDS011;10595;51.218;3.452;2022-09-25T13:23:16;4.03;;;0.77;;
20870;SDS011;10595;51.218;3.452;2022-09-25T13:25:46;3.67;;;0.77;;
20870;SDS011;10595;51.218;3.452;2022-09-25T13:28:21;3.53;;;0.67;;
20870;SDS011;10595;51.218;3.452;2022-09-25T13:30:58;4.27;;;1.00;;
20870;SDS011;10595;51.218;3.452;2022-09-25T13:33:25;6.77;;;0.90;;
20870;SDS011;10595;51.218;3.452;2022-09-25T13:36:11;1.00;;;0.60;;
20870;SDS011;10595;51.218;3.452;2022-09-25T13:38:40;1.87;;;0.60;;
20870;SDS011;10595;51.218;3.452;2022-09-25T13:41:28;1.63;;;0.67;;
20870;SDS011;10595;51.218;3.452;2022-09-25T13:46:38;2.17;;;0.40;;
20870;SDS011;10595;51.218;3.452;2022-09-25T13:51:50;3.87;;;0.50;;
20870;SDS011;10595;51.218;3.452;2022-09-25T13:54:23;2.53;;;0.80;;
20870;SDS011;10595;51.218;3.452;2022-09-25T13:56:50;2.67;;;1.27;;
20870;SDS011;10595;51.218;3.452;2022-09-25T13:59:22;3.67;;;1.10;;
20870;SDS011;10595;51.218;3.452;2022-09-25T14:01:52;3.70;;;1.20;;
20870;SDS011;10595;51.218;3.452;2022-09-25T14:06:46;2.57;;;0.70;;
20870;SDS011;10595;51.218;3.452;2022-09-25T14:09:16;2.30;;;0.50;;
20870;SDS011;10595;51.218;3.452;2022-09-25T14:15:05;4.57;;;0.70;;
20870;SDS011;10595;51.218;3.452;2022-09-25T14:17:17;3.83;;;0.67;;
20870;SDS011;10595;51.218;3.452;2022-09-25T14:19:45;2.13;;;0.40;;
20870;SDS011;10595;51.218;3.452;2022-09-25T14:22:16;3.13;;;0.40;;
20870;SDS011;10595;51.218;3.452;2022-09-25T14:24:43;2.83;;;0.63;;
20870;SDS011;10595;51.218;3.452;2022-09-25T14:27:15;2.20;;;0.50;;
20870;SDS011;10595;51.218;3.452;2022-09-25T14:29:43;3.73;;;0.70;;
20870;SDS011;10595;51.218;3.452;2022-09-25T14:35:00;3.00;;;0.70;;
20870;SDS011;10595;51.218;3.452;2022-09-25T14:40:18;2.90;;;0.40;;
20870;SDS011;10595;51.218;3.452;2022-09-25T14:47:50;0.80;;;0.30;;
20870;SDS011;10595;51.218;3.452;2022-09-25T14:50:21;1.23;;;0.37;;
20870;SDS011;10595;51.218;3.452;2022-09-25T14:52:47;1.80;;;0.50;;
20870;SDS011;10595;51.218;3.452;2022-09-25T14:55:16;2.57;;;0.40;;
20870;SDS011;10595;51.218;3.452;2022-09-25T14:57:45;2.03;;;0.40;;
20870;SDS011;10595;51.218;3.452;2022-09-25T15:00:14;1.13;;;0.40;;
20870;SDS011;10595;51.218;3.452;2022-09-25T15:02:41;3.63;;;0.53;;
20870;SDS011;10595;51.218;3.452;2022-09-25T15:07:50;1.13;;;0.30;;
20870;SDS011;10595;51.218;3.452;2022-09-25T15:10:35;2.57;;;0.57;;
20870;SDS011;10595;51.218;3.452;2022-09-25T15:13:06;2.20;;;0.57;;
20870;SDS011;10595;51.218;3.452;2022-09-25T15:15:33;4.23;;;0.60;;
20870;SDS011;10595;51.218;3.452;2022-09-25T15:17:59;3.23;;;0.60;;
20870;SDS011;10595;51.218;3.452;2022-09-25T15:20:30;1.57;;;0.57;;
20870;SDS011;10595;51.218;3.452;2022-09-25T15:23:07;1.47;;;0.60;;
20870;SDS011;10595;51.218;3.452;2022-09-25T15:25:44;7.57;;;1.03;;
20870;SDS011;10595;51.218;3.452;2022-09-25T15:28:13;4.30;;;0.70;;
20870;SDS011;10595;51.218;3.452;2022-09-25T15:30:40;1.57;;;0.50;;
20870;SDS011;10595;51.218;3.452;2022-09-25T15:33:18;8.27;;;1.07;;
20870;SDS011;10595;51.218;3.452;2022-09-25T15:35:52;2.47;;;1.00;;
20870;SDS011;10595;51.218;3.452;2022-09-25T15:38:18;2.53;;;0.50;;
20870;SDS011;10595;51.218;3.452;2022-09-25T15:40:52;3.20;;;0.67;;
20870;SDS011;10595;51.218;3.452;2022-09-25T15:43:19;2.90;;;0.70;;
20870;SDS011;10595;51.218;3.452;2022-09-25T15:50:49;2.07;;;0.67;;
20870;SDS011;10595;51.218;3.452;2022-09-25T15:53:21;3.67;;;0.70;;
20870;SDS011;10595;51.218;3.452;2022-09-25T15:55:48;2.87;;;0.83;;
20870;SDS011;10595;51.218;3.452;2022-09-25T15:58:15;3.77;;;1.10;;
20870;SDS011;10595;51.218;3.452;2022-09-25T16:01:00;4.20;;;1.93;;
20870;SDS011;10595;51.218;3.452;2022-09-25T16:03:49;2.43;;;1.27;;
20870;SDS011;10595;51.218;3.452;2022-09-25T16:06:38;5.23;;;1.10;;
20870;SDS011;10595;51.218;3.452;2022-09-25T16:09:09;0.93;;;0.60;;
20870;SDS011;10595;51.218;3.452;2022-09-25T16:11:35;4.10;;;0.57;;
20870;SDS011;10595;51.218;3.452;2022-09-25T16:14:24;3.80;;;0.70;;
20870;SDS011;10595;51.218;3.452;2022-09-25T16:16:53;2.47;;;0.87;;
20870;SDS011;10595;51.218;3.452;2022-09-25T16:21:45;1.93;;;0.70;;
20870;SDS011;10595;51.218;3.452;2022-09-25T16:24:17;2.97;;;0.60;;
20870;SDS011;10595;51.218;3.452;2022-09-25T16:26:43;2.10;;;0.70;;
20870;SDS011;10595;51.218;3.452;2022-09-25T16:31:36;4.97;;;0.70;;
20870;SDS011;10595;51.218;3.452;2022-09-25T16:34:02;1.40;;;0.60;;
20870;SDS011;10595;51.218;3.452;2022-09-25T16:36:36;5.77;;;0.87;;
20870;SDS011;10595;51.218;3.452;2022-09-25T16:39:09;6.03;;;0.90;;
20870;SDS011;10595;51.218;3.452;2022-09-25T16:41:36;4.27;;;0.90;;
20870;SDS011;10595;51.218;3.452;2022-09-25T16:46:38;1.80;;;0.50;;
20870;SDS011;10595;51.218;3.452;2022-09-25T16:49:05;2.57;;;0.50;;
20870;SDS011;10595;51.218;3.452;2022-09-25T16:51:31;1.70;;;0.60;;
20870;SDS011;10595;51.218;3.452;2022-09-25T16:53:58;3.97;;;0.77;;
20870;SDS011;10595;51.218;3.452;2022-09-25T16:56:25;1.43;;;0.50;;
20870;SDS011;10595;51.218;3.452;2022-09-25T16:58:52;2.30;;;0.93;;
20870;SDS011;10595;51.218;3.452;2022-09-25T17:01:19;2.83;;;0.90;;
20870;SDS011;10595;51.218;3.452;2022-09-25T17:03:46;3.60;;;0.90;;
20870;SDS011;10595;51.218;3.452;2022-09-25T17:06:24;1.10;;;0.60;;
20870;SDS011;10595;51.218;3.452;2022-09-25T17:08:51;2.43;;;0.60;;
20870;SDS011;10595;51.218;3.452;2022-09-25T17:11:17;2.83;;;1.03;;
20870;SDS011;10595;51.218;3.452;2022-09-25T17:13:44;3.53;;;0.80;;
20870;SDS011;10595;51.218;3.452;2022-09-25T17:16:10;2.57;;;0.70;;
20870;SDS011;10595;51.218;3.452;2022-09-25T17:18:37;3.23;;;1.10;;
20870;SDS011;10595;51.218;3.452;2022-09-25T17:21:05;4.10;;;0.90;;
20870;SDS011;10595;51.218;3.452;2022-09-25T17:23:32;3.70;;;0.63;;
20870;SDS011;10595;51.218;3.452;2022-09-25T17:26:02;2.80;;;0.67;;
20870;SDS011;10595;51.218;3.452;2022-09-25T17:28:28;2.70;;;0.60;;
20870;SDS011;10595;51.218;3.452;2022-09-25T17:30:56;3.60;;;0.50;;
20870;SDS011;10595;51.218;3.452;2022-09-25T17:33:23;2.47;;;0.80;;
20870;SDS011;10595;51.218;3.452;2022-09-25T17:38:20;0.80;;;0.50;;
20870;SDS011;10595;51.218;3.452;2022-09-25T17:40:46;3.40;;;0.90;;
20870;SDS011;10595;51.218;3.452;2022-09-25T17:43:14;2.53;;;0.77;;
20870;SDS011;10595;51.218;3.452;2022-09-25T17:48:07;2.47;;;1.40;;
20870;SDS011;10595;51.218;3.452;2022-09-25T17:50:33;2.27;;;1.00;;
20870;SDS011;10595;51.218;3.452;2022-09-25T17:53:00;2.50;;;1.13;;
20870;SDS011;10595;51.218;3.452;2022-09-25T17:55:27;2.20;;;1.33;;
20870;SDS011;10595;51.218;3.452;2022-09-25T17:57:54;1.50;;;1.10;;